Terminal Aerodrome Forecast
Issued by NWS San Angelo, TX

Home | Current Version | Previous Version | Text Only | Print | Product List | Glossary On
Versions: 1 2 3 4 5 6 7 8 9 10 11 12 13 14 15 16
222
FTUS44 KSJT 241724
TAFSJT
TAF
KSJT 241724Z 2418/2518 21011G18KT P6SM SKC
     FM242300 20011KT P6SM SKC
     FM250700 24011KT P6SM SKC
     FM251100 28011KT P6SM SKC
     FM251700 01015G22KT P6SM SKC=

USA.gov is the U.S. government's official web portal to all federal, state and local government web resources and services.